Terminal Aerodrome Forecast
Issued by NWS Wilmington, OH

Current Version | Previous Version | Graphics & Text | Print | Product List | Glossary On
Versions: 1 2 3 4 5 6 7 8 9 10 11 12 13 14 15 16 17 18 19 20 21 22 23 24 25 26 27 28
000
FTUS41 KILN 211400 AAB
TAFCVG
TAF AMD
KCVG 211455Z 2115/2218 04003KT P6SM SCT020
     FM211800 08006KT P6SM SCT040
     FM220100 VRB03KT P6SM SKC
     FM220900 00000KT 5SM BR SKC=

USA.gov is the U.S. government's official web portal to all federal, state and local government web resources and services.